sensor_id;sensor_type;location;lat;lon;timestamp;temperature;humidity
1702;DHT22;848;48.354;10.064;2023-05-29T00:01:10;10.70;99.90
1702;DHT22;848;48.354;10.064;2023-05-29T00:03:37;10.70;99.90
1702;DHT22;848;48.354;10.064;2023-05-29T00:06:04;10.60;99.90
1702;DHT22;848;48.354;10.064;2023-05-29T00:08:32;10.50;99.90
1702;DHT22;848;48.354;10.064;2023-05-29T00:10:59;10.50;99.90
1702;DHT22;848;48.354;10.064;2023-05-29T00:13:26;10.50;99.90
1702;DHT22;848;48.354;10.064;2023-05-29T00:15:53;10.60;99.90
1702;DHT22;848;48.354;10.064;2023-05-29T00:18:21;10.50;99.90
1702;DHT22;848;48.354;10.064;2023-05-29T00:20:48;10.40;99.90
1702;DHT22;848;48.354;10.064;2023-05-29T00:23:15;10.40;99.90
1702;DHT22;848;48.354;10.064;2023-05-29T00:25:42;10.20;99.90
1702;DHT22;848;48.354;10.064;2023-05-29T00:28:09;10.00;99.90
1702;DHT22;848;48.354;10.064;2023-05-29T00:30:37;10.00;99.90
1702;DHT22;848;48.354;10.064;2023-05-29T00:33:04;10.10;99.90
1702;DHT22;848;48.354;10.064;2023-05-29T00:35:33;10.10;99.90
1702;DHT22;848;48.354;10.064;2023-05-29T00:38:00;10.10;99.90
1702;DHT22;848;48.354;10.064;2023-05-29T00:40:26;10.10;99.90
1702;DHT22;848;48.354;10.064;2023-05-29T00:42:53;10.10;99.90
1702;DHT22;848;48.354;10.064;2023-05-29T00:45:20;10.00;99.90
1702;DHT22;848;48.354;10.064;2023-05-29T00:47:47;10.00;99.90
1702;DHT22;848;48.354;10.064;2023-05-29T00:50:14;10.10;99.90
1702;DHT22;848;48.354;10.064;2023-05-29T00:52:43;10.10;99.90
1702;DHT22;848;48.354;10.064;2023-05-29T00:55:11;10.00;99.90
1702;DHT22;848;48.354;10.064;2023-05-29T00:57:39;10.00;99.90
1702;DHT22;848;48.354;10.064;2023-05-29T01:00:07;10.00;99.90
1702;DHT22;848;48.354;10.064;2023-05-29T01:02:40;9.80;99.90
1702;DHT22;848;48.354;10.064;2023-05-29T01:05:10;9.60;99.90
1702;DHT22;848;48.354;10.064;2023-05-29T01:07:37;9.60;99.90
1702;DHT22;848;48.354;10.064;2023-05-29T01:10:06;9.70;99.90
1702;DHT22;848;48.354;10.064;2023-05-29T01:12:40;9.80;99.90
1702;DHT22;848;48.354;10.064;2023-05-29T01:15:22;9.70;99.90
1702;DHT22;848;48.354;10.064;2023-05-29T01:18:15;9.80;99.90
1702;DHT22;848;48.354;10.064;2023-05-29T01:20:50;9.70;99.90
1702;DHT22;848;48.354;10.064;2023-05-29T01:23:40;9.80;99.90
1702;DHT22;848;48.354;10.064;2023-05-29T01:26:15;9.80;99.90
1702;DHT22;848;48.354;10.064;2023-05-29T01:28:54;9.70;99.90
1702;DHT22;848;48.354;10.064;2023-05-29T01:31:23;9.70;99.90
1702;DHT22;848;48.354;10.064;2023-05-29T01:33:52;9.60;99.90
1702;DHT22;848;48.354;10.064;2023-05-29T01:36:19;9.60;99.90
1702;DHT22;848;48.354;10.064;2023-05-29T01:38:47;9.60;99.90
1702;DHT22;848;48.354;10.064;2023-05-29T01:41:14;9.50;99.90
1702;DHT22;848;48.354;10.064;2023-05-29T01:43:42;9.60;99.90
1702;DHT22;848;48.354;10.064;2023-05-29T01:46:11;9.60;99.90
1702;DHT22;848;48.354;10.064;2023-05-29T01:48:39;9.50;99.90
1702;DHT22;848;48.354;10.064;2023-05-29T01:51:06;9.60;99.90
1702;DHT22;848;48.354;10.064;2023-05-29T01:53:33;9.60;99.90
1702;DHT22;848;48.354;10.064;2023-05-29T01:56:00;9.60;99.90
1702;DHT22;848;48.354;10.064;2023-05-29T01:58:28;9.60;99.90
1702;DHT22;848;48.354;10.064;2023-05-29T02:00:57;9.60;99.90
1702;DHT22;848;48.354;10.064;2023-05-29T02:03:25;9.50;99.90
1702;DHT22;848;48.354;10.064;2023-05-29T02:05:54;9.50;99.90
1702;DHT22;848;48.354;10.064;2023-05-29T02:08:21;9.50;99.90
1702;DHT22;848;48.354;10.064;2023-05-29T02:10:48;9.50;99.90
1702;DHT22;848;48.354;10.064;2023-05-29T02:13:16;9.40;99.90
1702;DHT22;848;48.354;10.064;2023-05-29T02:15:43;9.30;99.90
1702;DHT22;848;48.354;10.064;2023-05-29T02:18:12;9.40;99.90
1702;DHT22;848;48.354;10.064;2023-05-29T02:20:41;9.30;99.90
1702;DHT22;848;48.354;10.064;2023-05-29T02:23:08;9.40;99.90
1702;DHT22;848;48.354;10.064;2023-05-29T02:25:35;9.40;99.90
1702;DHT22;848;48.354;10.064;2023-05-29T02:28:02;9.40;99.90
1702;DHT22;848;48.354;10.064;2023-05-29T02:30:30;9.30;99.90
1702;DHT22;848;48.354;10.064;2023-05-29T02:32:57;9.30;99.90
1702;DHT22;848;48.354;10.064;2023-05-29T02:35:24;9.30;99.90
1702;DHT22;848;48.354;10.064;2023-05-29T02:37:53;9.30;99.90
1702;DHT22;848;48.354;10.064;2023-05-29T02:40:20;9.20;99.90
1702;DHT22;848;48.354;10.064;2023-05-29T02:42:47;9.20;99.90
1702;DHT22;848;48.354;10.064;2023-05-29T02:45:14;9.10;99.90
1702;DHT22;848;48.354;10.064;2023-05-29T02:47:41;9.10;99.90
1702;DHT22;848;48.354;10.064;2023-05-29T02:50:08;9.00;99.90
1702;DHT22;848;48.354;10.064;2023-05-29T02:52:36;9.00;99.90
1702;DHT22;848;48.354;10.064;2023-05-29T02:55:04;8.90;99.90
1702;DHT22;848;48.354;10.064;2023-05-29T02:57:32;8.90;99.90
1702;DHT22;848;48.354;10.064;2023-05-29T02:59:59;8.90;99.90
1702;DHT22;848;48.354;10.064;2023-05-29T03:02:26;9.00;99.90
1702;DHT22;848;48.354;10.064;2023-05-29T03:04:53;9.00;99.90
1702;DHT22;848;48.354;10.064;2023-05-29T03:07:20;9.00;99.90
1702;DHT22;848;48.354;10.064;2023-05-29T03:09:47;9.00;99.90
1702;DHT22;848;48.354;10.064;2023-05-29T03:12:15;9.00;99.90
1702;DHT22;848;48.354;10.064;2023-05-29T03:14:44;9.00;99.90
1702;DHT22;848;48.354;10.064;2023-05-29T03:17:11;9.00;99.90
1702;DHT22;848;48.354;10.064;2023-05-29T03:19:38;9.10;99.90
1702;DHT22;848;48.354;10.064;2023-05-29T03:22:05;9.10;99.90
1702;DHT22;848;48.354;10.064;2023-05-29T03:24:32;9.00;99.90
1702;DHT22;848;48.354;10.064;2023-05-29T03:27:29;8.90;99.90
1702;DHT22;848;48.354;10.064;2023-05-29T03:29:56;8.90;99.90
1702;DHT22;848;48.354;10.064;2023-05-29T03:32:23;8.90;99.90
1702;DHT22;848;48.354;10.064;2023-05-29T03:34:50;8.90;99.90
1702;DHT22;848;48.354;10.064;2023-05-29T03:37:17;8.80;99.90
1702;DHT22;848;48.354;10.064;2023-05-29T03:39:44;8.90;99.90
1702;DHT22;848;48.354;10.064;2023-05-29T03:42:12;8.80;99.90
1702;DHT22;848;48.354;10.064;2023-05-29T03:44:41;8.90;99.90
1702;DHT22;848;48.354;10.064;2023-05-29T03:47:08;8.90;99.90
1702;DHT22;848;48.354;10.064;2023-05-29T03:49:35;8.90;99.90
1702;DHT22;848;48.354;10.064;2023-05-29T03:52:02;8.90;99.90
1702;DHT22;848;48.354;10.064;2023-05-29T03:54:29;8.90;99.90
1702;DHT22;848;48.354;10.064;2023-05-29T03:56:55;8.90;99.90
1702;DHT22;848;48.354;10.064;2023-05-29T03:59:22;8.90;99.90
1702;DHT22;848;48.354;10.064;2023-05-29T04:01:51;9.00;99.90
1702;DHT22;848;48.354;10.064;2023-05-29T04:04:18;9.00;99.90
1702;DHT22;848;48.354;10.064;2023-05-29T04:06:45;9.10;99.90
1702;DHT22;848;48.354;10.064;2023-05-29T04:09:11;9.20;99.90
1702;DHT22;848;48.354;10.064;2023-05-29T04:11:38;9.20;99.90
1702;DHT22;848;48.354;10.064;2023-05-29T04:14:07;9.20;99.90
1702;DHT22;848;48.354;10.064;2023-05-29T04:16:34;9.30;99.90
1702;DHT22;848;48.354;10.064;2023-05-29T04:19:02;9.30;99.90
1702;DHT22;848;48.354;10.064;2023-05-29T04:21:29;9.40;99.90
1702;DHT22;848;48.354;10.064;2023-05-29T04:23:58;9.50;99.90
1702;DHT22;848;48.354;10.064;2023-05-29T04:26:24;9.70;99.90
1702;DHT22;848;48.354;10.064;2023-05-29T04:28:52;9.60;99.90
1702;DHT22;848;48.354;10.064;2023-05-29T04:31:23;9.70;99.90
1702;DHT22;848;48.354;10.064;2023-05-29T04:33:51;9.80;99.90
1702;DHT22;848;48.354;10.064;2023-05-29T04:36:22;9.90;99.90
1702;DHT22;848;48.354;10.064;2023-05-29T04:38:51;10.10;99.90
1702;DHT22;848;48.354;10.064;2023-05-29T04:41:18;10.20;99.90
1702;DHT22;848;48.354;10.064;2023-05-29T04:43:49;10.30;99.90
1702;DHT22;848;48.354;10.064;2023-05-29T04:46:16;10.40;99.90
1702;DHT22;848;48.354;10.064;2023-05-29T04:48:44;10.60;99.90
1702;DHT22;848;48.354;10.064;2023-05-29T04:51:12;10.70;99.90
1702;DHT22;848;48.354;10.064;2023-05-29T04:53:40;10.80;99.90
1702;DHT22;848;48.354;10.064;2023-05-29T04:56:07;11.00;99.90
1702;DHT22;848;48.354;10.064;2023-05-29T04:58:34;11.20;99.90
1702;DHT22;848;48.354;10.064;2023-05-29T05:01:01;11.30;99.90
1702;DHT22;848;48.354;10.064;2023-05-29T05:03:29;11.50;99.90
1702;DHT22;848;48.354;10.064;2023-05-29T05:05:59;11.60;99.90
1702;DHT22;848;48.354;10.064;2023-05-29T05:08:27;11.70;99.90
1702;DHT22;848;48.354;10.064;2023-05-29T05:10:56;11.90;99.90
1702;DHT22;848;48.354;10.064;2023-05-29T05:13:23;12.00;99.90
1702;DHT22;848;48.354;10.064;2023-05-29T05:15:50;12.20;99.90
1702;DHT22;848;48.354;10.064;2023-05-29T05:18:17;12.30;99.90
1702;DHT22;848;48.354;10.064;2023-05-29T05:20:44;12.40;99.90
1702;DHT22;848;48.354;10.064;2023-05-29T05:23:11;12.50;99.90
1702;DHT22;848;48.354;10.064;2023-05-29T05:25:38;12.70;99.90
1702;DHT22;848;48.354;10.064;2023-05-29T05:28:08;12.80;99.90
1702;DHT22;848;48.354;10.064;2023-05-29T05:30:35;12.90;99.90
1702;DHT22;848;48.354;10.064;2023-05-29T05:33:02;13.10;99.90
1702;DHT22;848;48.354;10.064;2023-05-29T05:35:29;13.20;99.90
1702;DHT22;848;48.354;10.064;2023-05-29T05:37:56;13.40;99.90
1702;DHT22;848;48.354;10.064;2023-05-29T05:40:24;13.50;99.90
1702;DHT22;848;48.354;10.064;2023-05-29T05:42:51;13.70;99.90
1702;DHT22;848;48.354;10.064;2023-05-29T05:45:19;13.90;99.90
1702;DHT22;848;48.354;10.064;2023-05-29T05:47:46;14.10;99.90
1702;DHT22;848;48.354;10.064;2023-05-29T05:50:13;14.20;99.90
1702;DHT22;848;48.354;10.064;2023-05-29T05:52:40;14.30;99.90
1702;DHT22;848;48.354;10.064;2023-05-29T05:55:08;14.50;99.90
1702;DHT22;848;48.354;10.064;2023-05-29T05:57:35;14.60;99.90
1702;DHT22;848;48.354;10.064;2023-05-29T06:00:02;14.80;99.90
1702;DHT22;848;48.354;10.064;2023-05-29T06:02:34;14.90;99.90
1702;DHT22;848;48.354;10.064;2023-05-29T06:05:01;14.90;99.90
1702;DHT22;848;48.354;10.064;2023-05-29T06:07:29;15.00;99.90
1702;DHT22;848;48.354;10.064;2023-05-29T06:09:56;15.10;99.90
1702;DHT22;848;48.354;10.064;2023-05-29T06:12:23;15.20;99.90
1702;DHT22;848;48.354;10.064;2023-05-29T06:14:50;15.40;99.90
1702;DHT22;848;48.354;10.064;2023-05-29T06:17:17;15.90;99.90
1702;DHT22;848;48.354;10.064;2023-05-29T06:19:45;16.80;99.90
1702;DHT22;848;48.354;10.064;2023-05-29T06:22:13;18.20;99.90
1702;DHT22;848;48.354;10.064;2023-05-29T06:24:40;19.60;99.90
1702;DHT22;848;48.354;10.064;2023-05-29T06:27:07;20.50;99.90
1702;DHT22;848;48.354;10.064;2023-05-29T06:29:34;21.30;99.90
1702;DHT22;848;48.354;10.064;2023-05-29T06:32:01;21.80;99.90
1702;DHT22;848;48.354;10.064;2023-05-29T06:34:28;22.40;99.90
1702;DHT22;848;48.354;10.064;2023-05-29T06:36:56;22.90;99.90
1702;DHT22;848;48.354;10.064;2023-05-29T06:39:23;23.70;99.90
1702;DHT22;848;48.354;10.064;2023-05-29T06:41:50;24.10;99.90
1702;DHT22;848;48.354;10.064;2023-05-29T06:44:17;24.60;99.90
1702;DHT22;848;48.354;10.064;2023-05-29T06:46:44;25.10;99.90
1702;DHT22;848;48.354;10.064;2023-05-29T06:49:11;24.80;99.90
1702;DHT22;848;48.354;10.064;2023-05-29T06:51:38;25.00;99.90
1702;DHT22;848;48.354;10.064;2023-05-29T06:54:06;25.40;99.90
1702;DHT22;848;48.354;10.064;2023-05-29T06:56:33;25.40;99.90
1702;DHT22;848;48.354;10.064;2023-05-29T06:59:00;24.90;99.90
1702;DHT22;848;48.354;10.064;2023-05-29T07:01:27;25.10;99.90
1702;DHT22;848;48.354;10.064;2023-05-29T07:03:54;25.30;99.90
1702;DHT22;848;48.354;10.064;2023-05-29T07:06:21;25.10;99.90
1702;DHT22;848;48.354;10.064;2023-05-29T07:08:48;25.30;99.90
1702;DHT22;848;48.354;10.064;2023-05-29T07:11:16;25.20;99.90
1702;DHT22;848;48.354;10.064;2023-05-29T07:13:43;25.00;99.90
1702;DHT22;848;48.354;10.064;2023-05-29T07:16:10;25.10;99.90
1702;DHT22;848;48.354;10.064;2023-05-29T07:18:37;25.10;99.90
1702;DHT22;848;48.354;10.064;2023-05-29T07:21:04;24.90;99.90
1702;DHT22;848;48.354;10.064;2023-05-29T07:23:31;24.80;99.90
1702;DHT22;848;48.354;10.064;2023-05-29T07:25:58;24.70;99.90
1702;DHT22;848;48.354;10.064;2023-05-29T07:28:26;24.80;99.90
1702;DHT22;848;48.354;10.064;2023-05-29T07:30:53;24.70;99.90
1702;DHT22;848;48.354;10.064;2023-05-29T07:33:23;24.60;99.90
1702;DHT22;848;48.354;10.064;2023-05-29T07:35:49;24.80;99.90
1702;DHT22;848;48.354;10.064;2023-05-29T07:38:16;24.70;99.90
1702;DHT22;848;48.354;10.064;2023-05-29T07:40:44;24.30;99.90
1702;DHT22;848;48.354;10.064;2023-05-29T07:43:11;24.50;99.90
1702;DHT22;848;48.354;10.064;2023-05-29T07:45:39;24.90;99.90
1702;DHT22;848;48.354;10.064;2023-05-29T07:48:06;23.90;99.90
1702;DHT22;848;48.354;10.064;2023-05-29T07:50:33;23.50;99.90
1702;DHT22;848;48.354;10.064;2023-05-29T07:53:00;23.40;99.90
1702;DHT22;848;48.354;10.064;2023-05-29T07:55:27;24.20;99.90
1702;DHT22;848;48.354;10.064;2023-05-29T07:57:54;24.50;99.90
1702;DHT22;848;48.354;10.064;2023-05-29T08:00:21;25.10;99.90
1702;DHT22;848;48.354;10.064;2023-05-29T08:02:50;25.10;99.90
1702;DHT22;848;48.354;10.064;2023-05-29T08:05:17;24.90;99.90
1702;DHT22;848;48.354;10.064;2023-05-29T08:07:44;25.50;99.90
1702;DHT22;848;48.354;10.064;2023-05-29T08:10:12;25.50;99.90
1702;DHT22;848;48.354;10.064;2023-05-29T08:12:39;24.90;99.90
1702;DHT22;848;48.354;10.064;2023-05-29T08:15:07;24.90;99.90
1702;DHT22;848;48.354;10.064;2023-05-29T08:17:34;25.50;99.90
1702;DHT22;848;48.354;10.064;2023-05-29T08:20:03;25.60;99.90
1702;DHT22;848;48.354;10.064;2023-05-29T08:22:32;24.90;99.90
1702;DHT22;848;48.354;10.064;2023-05-29T08:25:00;25.00;99.90
1702;DHT22;848;48.354;10.064;2023-05-29T08:27:27;25.50;99.90
1702;DHT22;848;48.354;10.064;2023-05-29T08:29:54;25.80;99.90
1702;DHT22;848;48.354;10.064;2023-05-29T08:32:21;25.90;99.90
1702;DHT22;848;48.354;10.064;2023-05-29T08:34:48;25.50;99.90
1702;DHT22;848;48.354;10.064;2023-05-29T08:37:18;24.90;99.90
1702;DHT22;848;48.354;10.064;2023-05-29T08:39:46;24.80;99.90
1702;DHT22;848;48.354;10.064;2023-05-29T08:42:14;24.60;99.90
1702;DHT22;848;48.354;10.064;2023-05-29T08:44:47;24.80;99.90
1702;DHT22;848;48.354;10.064;2023-05-29T08:47:15;25.00;99.90
1702;DHT22;848;48.354;10.064;2023-05-29T08:49:51;25.30;99.90
1702;DHT22;848;48.354;10.064;2023-05-29T08:52:23;25.30;99.90
1702;DHT22;848;48.354;10.064;2023-05-29T08:54:51;25.30;99.90
1702;DHT22;848;48.354;10.064;2023-05-29T08:57:20;25.30;99.90
1702;DHT22;848;48.354;10.064;2023-05-29T08:59:47;25.10;99.90
1702;DHT22;848;48.354;10.064;2023-05-29T09:02:17;25.10;99.90
1702;DHT22;848;48.354;10.064;2023-05-29T09:04:46;25.00;99.90
1702;DHT22;848;48.354;10.064;2023-05-29T09:07:14;25.10;99.90
1702;DHT22;848;48.354;10.064;2023-05-29T09:09:43;25.20;99.90
1702;DHT22;848;48.354;10.064;2023-05-29T09:12:10;24.90;99.90
1702;DHT22;848;48.354;10.064;2023-05-29T09:14:38;24.20;99.90
1702;DHT22;848;48.354;10.064;2023-05-29T09:17:06;24.20;99.90
1702;DHT22;848;48.354;10.064;2023-05-29T09:19:34;24.50;99.90
1702;DHT22;848;48.354;10.064;2023-05-29T09:22:02;24.20;99.90
1702;DHT22;848;48.354;10.064;2023-05-29T09:24:32;24.30;99.90
1702;DHT22;848;48.354;10.064;2023-05-29T09:27:00;24.00;99.90
1702;DHT22;848;48.354;10.064;2023-05-29T09:29:31;23.70;99.90
1702;DHT22;848;48.354;10.064;2023-05-29T09:31:58;23.60;99.90
1702;DHT22;848;48.354;10.064;2023-05-29T09:34:26;23.70;99.90
1702;DHT22;848;48.354;10.064;2023-05-29T09:36:53;23.60;99.90
1702;DHT22;848;48.354;10.064;2023-05-29T09:39:22;23.50;99.90
1702;DHT22;848;48.354;10.064;2023-05-29T09:41:49;23.50;99.90
1702;DHT22;848;48.354;10.064;2023-05-29T09:44:17;23.60;99.90
1702;DHT22;848;48.354;10.064;2023-05-29T09:46:48;23.80;99.90
1702;DHT22;848;48.354;10.064;2023-05-29T09:49:15;23.80;99.90
1702;DHT22;848;48.354;10.064;2023-05-29T09:51:46;23.70;99.90
1702;DHT22;848;48.354;10.064;2023-05-29T09:54:14;23.90;99.90
1702;DHT22;848;48.354;10.064;2023-05-29T09:56:42;23.90;99.90
1702;DHT22;848;48.354;10.064;2023-05-29T09:59:11;23.90;99.90
1702;DHT22;848;48.354;10.064;2023-05-29T10:01:41;23.70;98.30
1702;DHT22;848;48.354;10.064;2023-05-29T10:04:10;23.60;98.40
1702;DHT22;848;48.354;10.064;2023-05-29T10:06:38;23.70;98.20
1702;DHT22;848;48.354;10.064;2023-05-29T10:09:07;23.70;99.60
1702;DHT22;848;48.354;10.064;2023-05-29T10:11:35;23.60;98.40
1702;DHT22;848;48.354;10.064;2023-05-29T10:14:06;23.30;99.40
1702;DHT22;848;48.354;10.064;2023-05-29T10:16:34;23.10;97.80
1702;DHT22;848;48.354;10.064;2023-05-29T10:19:09;23.00;99.00
1702;DHT22;848;48.354;10.064;2023-05-29T10:21:40;23.00;97.30
1702;DHT22;848;48.354;10.064;2023-05-29T10:24:08;22.70;96.90
1702;DHT22;848;48.354;10.064;2023-05-29T10:26:39;22.70;99.00
1702;DHT22;848;48.354;10.064;2023-05-29T10:29:12;22.70;98.60
1702;DHT22;848;48.354;10.064;2023-05-29T10:31:48;22.70;99.40
1702;DHT22;848;48.354;10.064;2023-05-29T10:34:26;22.40;99.60
1702;DHT22;848;48.354;10.064;2023-05-29T10:37:04;22.30;95.40
1702;DHT22;848;48.354;10.064;2023-05-29T10:39:32;22.10;97.90
1702;DHT22;848;48.354;10.064;2023-05-29T10:41:59;22.10;98.70
1702;DHT22;848;48.354;10.064;2023-05-29T10:44:40;22.00;99.90
1702;DHT22;848;48.354;10.064;2023-05-29T10:47:07;22.00;99.10
1702;DHT22;848;48.354;10.064;2023-05-29T10:49:38;22.10;99.10
1702;DHT22;848;48.354;10.064;2023-05-29T10:52:06;22.20;99.00
1702;DHT22;848;48.354;10.064;2023-05-29T10:54:53;22.10;98.60
1702;DHT22;848;48.354;10.064;2023-05-29T10:57:21;22.10;99.40
1702;DHT22;848;48.354;10.064;2023-05-29T10:59:58;22.20;97.60
1702;DHT22;848;48.354;10.064;2023-05-29T11:02:26;22.10;98.00
1702;DHT22;848;48.354;10.064;2023-05-29T11:05:21;22.00;97.20
1702;DHT22;848;48.354;10.064;2023-05-29T11:07:55;21.90;95.40
1702;DHT22;848;48.354;10.064;2023-05-29T11:10:55;22.00;97.30
1702;DHT22;848;48.354;10.064;2023-05-29T11:13:27;22.10;95.70
1702;DHT22;848;48.354;10.064;2023-05-29T11:16:13;22.10;96.70
1702;DHT22;848;48.354;10.064;2023-05-29T11:18:44;22.00;96.50
1702;DHT22;848;48.354;10.064;2023-05-29T11:21:23;22.00;96.00
1702;DHT22;848;48.354;10.064;2023-05-29T11:23:51;22.10;95.00
1702;DHT22;848;48.354;10.064;2023-05-29T11:26:20;22.10;95.00
1702;DHT22;848;48.354;10.064;2023-05-29T11:28:47;22.10;95.30
1702;DHT22;848;48.354;10.064;2023-05-29T11:31:15;22.00;94.20
1702;DHT22;848;48.354;10.064;2023-05-29T11:33:48;22.00;95.20
1702;DHT22;848;48.354;10.064;2023-05-29T11:36:17;22.00;95.10
1702;DHT22;848;48.354;10.064;2023-05-29T11:38:45;22.10;93.80
1702;DHT22;848;48.354;10.064;2023-05-29T11:41:12;22.10;93.90
1702;DHT22;848;48.354;10.064;2023-05-29T11:43:39;22.10;94.90
1702;DHT22;848;48.354;10.064;2023-05-29T11:46:16;22.00;94.30
1702;DHT22;848;48.354;10.064;2023-05-29T11:48:48;22.00;95.00
1702;DHT22;848;48.354;10.064;2023-05-29T11:51:16;22.00;94.30
1702;DHT22;848;48.354;10.064;2023-05-29T11:53:46;21.90;94.60
1702;DHT22;848;48.354;10.064;2023-05-29T11:56:13;22.00;96.30
1702;DHT22;848;48.354;10.064;2023-05-29T11:58:42;22.10;96.40
1702;DHT22;848;48.354;10.064;2023-05-29T12:01:09;22.10;94.40
1702;DHT22;848;48.354;10.064;2023-05-29T12:03:40;22.00;94.40
1702;DHT22;848;48.354;10.064;2023-05-29T12:06:11;22.10;95.10
1702;DHT22;848;48.354;10.064;2023-05-29T12:08:40;22.10;94.00
1702;DHT22;848;48.354;10.064;2023-05-29T12:11:07;22.00;94.40
1702;DHT22;848;48.354;10.064;2023-05-29T12:13:34;22.10;95.30
1702;DHT22;848;48.354;10.064;2023-05-29T12:16:04;22.10;92.10
1702;DHT22;848;48.354;10.064;2023-05-29T12:18:32;22.10;93.10
1702;DHT22;848;48.354;10.064;2023-05-29T12:21:00;22.00;92.80
1702;DHT22;848;48.354;10.064;2023-05-29T12:23:28;22.00;91.80
1702;DHT22;848;48.354;10.064;2023-05-29T12:25:58;22.10;91.80
1702;DHT22;848;48.354;10.064;2023-05-29T12:28:28;22.10;91.00
1702;DHT22;848;48.354;10.064;2023-05-29T12:30:58;22.10;91.60
1702;DHT22;848;48.354;10.064;2023-05-29T12:33:29;22.10;91.60
1702;DHT22;848;48.354;10.064;2023-05-29T12:36:04;22.10;92.00
1702;DHT22;848;48.354;10.064;2023-05-29T12:38:32;22.20;93.20
1702;DHT22;848;48.354;10.064;2023-05-29T12:41:00;22.20;90.70
1702;DHT22;848;48.354;10.064;2023-05-29T12:43:28;22.20;91.30
1702;DHT22;848;48.354;10.064;2023-05-29T12:45:55;22.10;92.00
1702;DHT22;848;48.354;10.064;2023-05-29T12:48:26;22.10;94.30
1702;DHT22;848;48.354;10.064;2023-05-29T12:50:54;22.20;93.70
1702;DHT22;848;48.354;10.064;2023-05-29T12:53:21;22.20;95.40
1702;DHT22;848;48.354;10.064;2023-05-29T12:55:48;22.20;93.90
1702;DHT22;848;48.354;10.064;2023-05-29T12:58:16;22.20;92.00
1702;DHT22;848;48.354;10.064;2023-05-29T13:00:44;22.10;92.80
1702;DHT22;848;48.354;10.064;2023-05-29T13:03:12;22.10;94.70
1702;DHT22;848;48.354;10.064;2023-05-29T13:05:40;22.10;95.50
1702;DHT22;848;48.354;10.064;2023-05-29T13:10:19;22.10;93.60
1702;DHT22;848;48.354;10.064;2023-05-29T13:12:48;22.10;93.50
1702;DHT22;848;48.354;10.064;2023-05-29T13:15:19;22.10;92.80
1702;DHT22;848;48.354;10.064;2023-05-29T13:17:46;22.00;92.10
1702;DHT22;848;48.354;10.064;2023-05-29T13:20:14;22.00;94.50
1702;DHT22;848;48.354;10.064;2023-05-29T13:22:42;22.00;96.50
1702;DHT22;848;48.354;10.064;2023-05-29T13:25:11;22.10;94.30
1702;DHT22;848;48.354;10.064;2023-05-29T13:27:41;22.10;91.70
1702;DHT22;848;48.354;10.064;2023-05-29T13:30:10;22.10;93.40
1702;DHT22;848;48.354;10.064;2023-05-29T13:32:38;22.10;92.20
1702;DHT22;848;48.354;10.064;2023-05-29T13:35:05;22.10;94.90
1702;DHT22;848;48.354;10.064;2023-05-29T13:37:32;22.10;94.20
1702;DHT22;848;48.354;10.064;2023-05-29T13:39:59;22.10;94.30
1702;DHT22;848;48.354;10.064;2023-05-29T13:42:26;22.20;93.30
1702;DHT22;848;48.354;10.064;2023-05-29T13:44:54;22.30;92.50
1702;DHT22;848;48.354;10.064;2023-05-29T13:47:21;22.60;91.90
1702;DHT22;848;48.354;10.064;2023-05-29T13:49:48;22.20;92.60
1702;DHT22;848;48.354;10.064;2023-05-29T13:52:15;22.10;95.10
1702;DHT22;848;48.354;10.064;2023-05-29T13:54:43;22.20;95.60
1702;DHT22;848;48.354;10.064;2023-05-29T13:57:09;22.10;95.30
1702;DHT22;848;48.354;10.064;2023-05-29T13:59:37;22.00;95.10
1702;DHT22;848;48.354;10.064;2023-05-29T14:02:06;22.00;93.60
1702;DHT22;848;48.354;10.064;2023-05-29T14:04:33;22.00;94.20
1702;DHT22;848;48.354;10.064;2023-05-29T14:07:01;22.00;92.70
1702;DHT22;848;48.354;10.064;2023-05-29T14:09:29;22.00;92.10
1702;DHT22;848;48.354;10.064;2023-05-29T14:11:58;22.10;95.30
1702;DHT22;848;48.354;10.064;2023-05-29T14:14:26;22.10;95.10
1702;DHT22;848;48.354;10.064;2023-05-29T14:16:53;22.10;94.30
1702;DHT22;848;48.354;10.064;2023-05-29T14:19:22;22.10;92.20
1702;DHT22;848;48.354;10.064;2023-05-29T14:21:50;22.00;93.70
1702;DHT22;848;48.354;10.064;2023-05-29T14:24:17;22.20;92.90
1702;DHT22;848;48.354;10.064;2023-05-29T14:26:45;22.20;93.10
1702;DHT22;848;48.354;10.064;2023-05-29T14:29:13;22.20;93.80
1702;DHT22;848;48.354;10.064;2023-05-29T14:31:40;22.20;92.90
1702;DHT22;848;48.354;10.064;2023-05-29T14:34:08;22.10;92.40
1702;DHT22;848;48.354;10.064;2023-05-29T14:36:36;22.10;94.60
1702;DHT22;848;48.354;10.064;2023-05-29T14:39:03;22.10;95.20
1702;DHT22;848;48.354;10.064;2023-05-29T14:41:30;22.10;94.80
1702;DHT22;848;48.354;10.064;2023-05-29T14:43:59;22.10;95.10
1702;DHT22;848;48.354;10.064;2023-05-29T14:46:26;22.10;94.50
1702;DHT22;848;48.354;10.064;2023-05-29T14:48:57;22.10;95.40
1702;DHT22;848;48.354;10.064;2023-05-29T14:51:24;22.00;93.50
1702;DHT22;848;48.354;10.064;2023-05-29T14:53:52;22.00;95.80
1702;DHT22;848;48.354;10.064;2023-05-29T14:56:19;22.00;94.00
1702;DHT22;848;48.354;10.064;2023-05-29T14:58:46;21.90;94.60
1702;DHT22;848;48.354;10.064;2023-05-29T15:01:13;22.00;93.00
1702;DHT22;848;48.354;10.064;2023-05-29T15:03:40;22.00;93.50
1702;DHT22;848;48.354;10.064;2023-05-29T15:06:09;22.00;92.40
1702;DHT22;848;48.354;10.064;2023-05-29T15:08:37;22.00;93.00
1702;DHT22;848;48.354;10.064;2023-05-29T15:11:06;22.00;93.70
1702;DHT22;848;48.354;10.064;2023-05-29T15:13:34;21.90;95.10
1702;DHT22;848;48.354;10.064;2023-05-29T15:16:01;21.90;94.80
1702;DHT22;848;48.354;10.064;2023-05-29T15:18:29;22.00;94.00
1702;DHT22;848;48.354;10.064;2023-05-29T15:20:56;22.00;93.30
1702;DHT22;848;48.354;10.064;2023-05-29T15:23:24;22.00;93.20
1702;DHT22;848;48.354;10.064;2023-05-29T15:25:52;22.00;92.10
1702;DHT22;848;48.354;10.064;2023-05-29T15:28:20;22.00;92.70
1702;DHT22;848;48.354;10.064;2023-05-29T15:30:47;22.00;92.40
1702;DHT22;848;48.354;10.064;2023-05-29T15:33:14;22.00;93.50
1702;DHT22;848;48.354;10.064;2023-05-29T15:35:41;22.00;91.00
1702;DHT22;848;48.354;10.064;2023-05-29T15:38:09;22.00;92.20
1702;DHT22;848;48.354;10.064;2023-05-29T15:40:38;21.90;92.20
1702;DHT22;848;48.354;10.064;2023-05-29T15:43:05;22.00;91.60
1702;DHT22;848;48.354;10.064;2023-05-29T15:45:33;22.00;92.80
1702;DHT22;848;48.354;10.064;2023-05-29T15:48:00;22.00;93.30
1702;DHT22;848;48.354;10.064;2023-05-29T15:50:27;21.90;92.20
1702;DHT22;848;48.354;10.064;2023-05-29T15:52:54;21.90;93.20
1702;DHT22;848;48.354;10.064;2023-05-29T15:55:21;21.90;92.90
1702;DHT22;848;48.354;10.064;2023-05-29T15:57:48;21.90;93.80
1702;DHT22;848;48.354;10.064;2023-05-29T16:00:15;21.90;93.50
1702;DHT22;848;48.354;10.064;2023-05-29T16:02:44;22.00;92.60
1702;DHT22;848;48.354;10.064;2023-05-29T16:05:11;22.00;92.00
1702;DHT22;848;48.354;10.064;2023-05-29T16:07:38;21.90;92.10
1702;DHT22;848;48.354;10.064;2023-05-29T16:10:05;21.90;92.70
1702;DHT22;848;48.354;10.064;2023-05-29T16:12:33;21.90;92.10
1702;DHT22;848;48.354;10.064;2023-05-29T16:15:00;21.80;92.20